sensor_id;sensor_type;location;lat;lon;timestamp;P1;durP1;ratioP1;P2;durP2;ratioP2
78346;SDS011;67803;41.330;69.282;2023-07-20T00:01:25;6.43;;;2.00;;
78346;SDS011;67803;41.330;69.282;2023-07-20T00:03:56;6.60;;;2.22;;
78346;SDS011;67803;41.330;69.282;2023-07-20T00:06:26;8.45;;;1.92;;
78346;SDS011;67803;41.330;69.282;2023-07-20T00:08:57;10.52;;;2.45;;
78346;SDS011;67803;41.330;69.282;2023-07-20T00:11:29;4.43;;;2.28;;
78346;SDS011;67803;41.330;69.282;2023-07-20T00:13:59;6.47;;;2.45;;
78346;SDS011;67803;41.330;69.282;2023-07-20T00:16:30;6.30;;;2.22;;
78346;SDS011;67803;41.330;69.282;2023-07-20T00:19:00;9.15;;;2.50;;
78346;SDS011;67803;41.330;69.282;2023-07-20T00:21:31;7.97;;;2.05;;
78346;SDS011;67803;41.330;69.282;2023-07-20T00:24:01;5.80;;;2.38;;
78346;SDS011;67803;41.330;69.282;2023-07-20T00:26:31;10.55;;;2.22;;
78346;SDS011;67803;41.330;69.282;2023-07-20T00:29:02;7.38;;;2.90;;
78346;SDS011;67803;41.330;69.282;2023-07-20T00:31:33;8.27;;;2.20;;
78346;SDS011;67803;41.330;69.282;2023-07-20T00:34:05;8.38;;;2.97;;
78346;SDS011;67803;41.330;69.282;2023-07-20T00:36:36;6.38;;;2.10;;
78346;SDS011;67803;41.330;69.282;2023-07-20T00:39:06;7.75;;;2.35;;
78346;SDS011;67803;41.330;69.282;2023-07-20T00:41:36;6.93;;;2.22;;
78346;SDS011;67803;41.330;69.282;2023-07-20T00:44:07;9.55;;;2.38;;
78346;SDS011;67803;41.330;69.282;2023-07-20T00:46:38;7.13;;;2.05;;
78346;SDS011;67803;41.330;69.282;2023-07-20T00:49:09;6.90;;;2.60;;
78346;SDS011;67803;41.330;69.282;2023-07-20T00:51:39;11.13;;;2.40;;
78346;SDS011;67803;41.330;69.282;2023-07-20T00:54:10;7.85;;;2.20;;
78346;SDS011;67803;41.330;69.282;2023-07-20T00:56:40;5.95;;;2.22;;
78346;SDS011;67803;41.330;69.282;2023-07-20T00:59:11;13.38;;;2.83;;
78346;SDS011;67803;41.330;69.282;2023-07-20T01:01:41;9.52;;;2.83;;
78346;SDS011;67803;41.330;69.282;2023-07-20T01:04:12;11.52;;;2.80;;
78346;SDS011;67803;41.330;69.282;2023-07-20T01:06:53;9.05;;;3.25;;
78346;SDS011;67803;41.330;69.282;2023-07-20T01:09:36;6.97;;;2.38;;
78346;SDS011;67803;41.330;69.282;2023-07-20T01:12:12;7.72;;;2.78;;
78346;SDS011;67803;41.330;69.282;2023-07-20T01:14:44;5.20;;;2.40;;
78346;SDS011;67803;41.330;69.282;2023-07-20T01:17:14;8.00;;;2.55;;
78346;SDS011;67803;41.330;69.282;2023-07-20T01:19:45;5.35;;;1.98;;
78346;SDS011;67803;41.330;69.282;2023-07-20T01:22:21;8.45;;;2.45;;
78346;SDS011;67803;41.330;69.282;2023-07-20T01:33:01;6.18;;;2.70;;
78346;SDS011;67803;41.330;69.282;2023-07-20T01:35:32;6.20;;;2.10;;
78346;SDS011;67803;41.330;69.282;2023-07-20T01:38:03;8.77;;;2.65;;
78346;SDS011;67803;41.330;69.282;2023-07-20T01:40:34;9.30;;;2.50;;
78346;SDS011;67803;41.330;69.282;2023-07-20T01:43:04;8.43;;;2.75;;
78346;SDS011;67803;41.330;69.282;2023-07-20T01:45:35;11.75;;;3.45;;
78346;SDS011;67803;41.330;69.282;2023-07-20T01:48:05;13.45;;;5.00;;
78346;SDS011;67803;41.330;69.282;2023-07-20T01:50:36;18.60;;;4.18;;
78346;SDS011;67803;41.330;69.282;2023-07-20T01:53:06;9.35;;;3.95;;
78346;SDS011;67803;41.330;69.282;2023-07-20T01:55:37;14.73;;;4.10;;
78346;SDS011;67803;41.330;69.282;2023-07-20T01:58:07;11.05;;;4.10;;
78346;SDS011;67803;41.330;69.282;2023-07-20T02:00:38;15.27;;;5.10;;
78346;SDS011;67803;41.330;69.282;2023-07-20T02:03:09;14.55;;;5.15;;
78346;SDS011;67803;41.330;69.282;2023-07-20T02:05:39;13.68;;;4.82;;
78346;SDS011;67803;41.330;69.282;2023-07-20T02:08:09;21.10;;;5.70;;
78346;SDS011;67803;41.330;69.282;2023-07-20T02:10:40;16.20;;;6.28;;
78346;SDS011;67803;41.330;69.282;2023-07-20T02:13:10;19.35;;;6.13;;
78346;SDS011;67803;41.330;69.282;2023-07-20T02:15:41;19.38;;;6.53;;
78346;SDS011;67803;41.330;69.282;2023-07-20T02:18:12;21.20;;;7.53;;
78346;SDS011;67803;41.330;69.282;2023-07-20T02:20:43;21.95;;;7.60;;
78346;SDS011;67803;41.330;69.282;2023-07-20T02:23:13;21.48;;;7.57;;
78346;SDS011;67803;41.330;69.282;2023-07-20T02:25:43;23.10;;;8.73;;
78346;SDS011;67803;41.330;69.282;2023-07-20T02:28:14;26.83;;;8.50;;
78346;SDS011;67803;41.330;69.282;2023-07-20T02:30:44;28.88;;;9.43;;
78346;SDS011;67803;41.330;69.282;2023-07-20T02:33:15;29.98;;;8.88;;
78346;SDS011;67803;41.330;69.282;2023-07-20T02:35:45;31.88;;;9.10;;
78346;SDS011;67803;41.330;69.282;2023-07-20T02:38:16;30.15;;;9.13;;
78346;SDS011;67803;41.330;69.282;2023-07-20T02:40:47;34.15;;;10.95;;
78346;SDS011;67803;41.330;69.282;2023-07-20T02:43:17;29.27;;;8.98;;
78346;SDS011;67803;41.330;69.282;2023-07-20T02:45:47;36.78;;;10.23;;
78346;SDS011;67803;41.330;69.282;2023-07-20T02:48:18;38.13;;;10.45;;
78346;SDS011;67803;41.330;69.282;2023-07-20T02:50:49;30.40;;;10.27;;
78346;SDS011;67803;41.330;69.282;2023-07-20T02:53:19;29.75;;;10.10;;
78346;SDS011;67803;41.330;69.282;2023-07-20T02:55:49;37.75;;;10.98;;
78346;SDS011;67803;41.330;69.282;2023-07-20T02:58:20;31.58;;;10.38;;
78346;SDS011;67803;41.330;69.282;2023-07-20T03:00:50;41.92;;;11.32;;
78346;SDS011;67803;41.330;69.282;2023-07-20T03:03:21;33.13;;;11.27;;
78346;SDS011;67803;41.330;69.282;2023-07-20T03:05:51;39.75;;;11.25;;
78346;SDS011;67803;41.330;69.282;2023-07-20T03:08:24;34.70;;;11.13;;
78346;SDS011;67803;41.330;69.282;2023-07-20T03:10:54;32.65;;;12.05;;
78346;SDS011;67803;41.330;69.282;2023-07-20T03:13:25;34.05;;;11.98;;
78346;SDS011;67803;41.330;69.282;2023-07-20T03:15:55;32.20;;;11.95;;
78346;SDS011;67803;41.330;69.282;2023-07-20T03:18:26;36.22;;;12.45;;
78346;SDS011;67803;41.330;69.282;2023-07-20T03:20:56;34.42;;;11.93;;
78346;SDS011;67803;41.330;69.282;2023-07-20T03:23:27;40.97;;;13.18;;
78346;SDS011;67803;41.330;69.282;2023-07-20T03:25:57;37.50;;;13.63;;
78346;SDS011;67803;41.330;69.282;2023-07-20T03:28:28;45.55;;;12.90;;
78346;SDS011;67803;41.330;69.282;2023-07-20T03:30:58;33.55;;;12.98;;
78346;SDS011;67803;41.330;69.282;2023-07-20T03:33:29;39.03;;;15.15;;
78346;SDS011;67803;41.330;69.282;2023-07-20T03:36:00;36.63;;;14.68;;
78346;SDS011;67803;41.330;69.282;2023-07-20T03:38:31;41.97;;;14.10;;
78346;SDS011;67803;41.330;69.282;2023-07-20T03:41:01;40.67;;;13.75;;
78346;SDS011;67803;41.330;69.282;2023-07-20T03:43:31;39.67;;;15.52;;
78346;SDS011;67803;41.330;69.282;2023-07-20T03:46:02;36.75;;;14.43;;
78346;SDS011;67803;41.330;69.282;2023-07-20T03:48:36;35.45;;;14.20;;
78346;SDS011;67803;41.330;69.282;2023-07-20T03:51:07;33.78;;;14.85;;
78346;SDS011;67803;41.330;69.282;2023-07-20T03:53:37;45.67;;;14.65;;
78346;SDS011;67803;41.330;69.282;2023-07-20T03:56:09;35.80;;;14.60;;
78346;SDS011;67803;41.330;69.282;2023-07-20T03:58:39;36.08;;;14.80;;
78346;SDS011;67803;41.330;69.282;2023-07-20T04:01:09;34.38;;;13.63;;
78346;SDS011;67803;41.330;69.282;2023-07-20T04:03:40;37.20;;;14.50;;
78346;SDS011;67803;41.330;69.282;2023-07-20T04:06:11;34.38;;;14.05;;
78346;SDS011;67803;41.330;69.282;2023-07-20T04:08:42;37.22;;;13.95;;
78346;SDS011;67803;41.330;69.282;2023-07-20T04:11:12;41.00;;;13.88;;
78346;SDS011;67803;41.330;69.282;2023-07-20T04:13:43;40.72;;;13.93;;
78346;SDS011;67803;41.330;69.282;2023-07-20T04:16:13;36.72;;;12.85;;
78346;SDS011;67803;41.330;69.282;2023-07-20T04:18:44;35.90;;;13.18;;
78346;SDS011;67803;41.330;69.282;2023-07-20T04:21:14;37.35;;;12.43;;
78346;SDS011;67803;41.330;69.282;2023-07-20T04:23:44;32.47;;;13.27;;
78346;SDS011;67803;41.330;69.282;2023-07-20T04:26:15;30.23;;;11.85;;
78346;SDS011;67803;41.330;69.282;2023-07-20T04:28:46;39.45;;;11.98;;
78346;SDS011;67803;41.330;69.282;2023-07-20T04:31:17;39.13;;;13.20;;
78346;SDS011;67803;41.330;69.282;2023-07-20T04:33:48;36.13;;;12.07;;
78346;SDS011;67803;41.330;69.282;2023-07-20T04:36:19;37.10;;;12.85;;
78346;SDS011;67803;41.330;69.282;2023-07-20T04:38:49;36.08;;;12.13;;
78346;SDS011;67803;41.330;69.282;2023-07-20T04:41:20;39.33;;;11.90;;
78346;SDS011;67803;41.330;69.282;2023-07-20T04:43:50;32.92;;;11.52;;
78346;SDS011;67803;41.330;69.282;2023-07-20T04:46:21;33.00;;;11.18;;
78346;SDS011;67803;41.330;69.282;2023-07-20T04:48:51;37.47;;;10.85;;
78346;SDS011;67803;41.330;69.282;2023-07-20T04:51:22;35.45;;;11.32;;
78346;SDS011;67803;41.330;69.282;2023-07-20T04:53:53;36.22;;;10.32;;
78346;SDS011;67803;41.330;69.282;2023-07-20T04:56:24;28.02;;;10.00;;
78346;SDS011;67803;41.330;69.282;2023-07-20T04:58:54;28.75;;;9.40;;
78346;SDS011;67803;41.330;69.282;2023-07-20T05:01:25;35.25;;;10.90;;
78346;SDS011;67803;41.330;69.282;2023-07-20T05:03:56;32.83;;;10.30;;
78346;SDS011;67803;41.330;69.282;2023-07-20T05:06:27;26.77;;;9.82;;
78346;SDS011;67803;41.330;69.282;2023-07-20T05:08:57;30.65;;;10.10;;
78346;SDS011;67803;41.330;69.282;2023-07-20T05:11:28;25.70;;;9.57;;
78346;SDS011;67803;41.330;69.282;2023-07-20T05:13:58;32.85;;;9.48;;
78346;SDS011;67803;41.330;69.282;2023-07-20T05:16:28;30.67;;;10.32;;
78346;SDS011;67803;41.330;69.282;2023-07-20T05:18:59;27.77;;;9.70;;
78346;SDS011;67803;41.330;69.282;2023-07-20T05:21:30;26.60;;;8.52;;
78346;SDS011;67803;41.330;69.282;2023-07-20T05:24:01;26.45;;;9.45;;
78346;SDS011;67803;41.330;69.282;2023-07-20T05:26:31;25.80;;;7.82;;
78346;SDS011;67803;41.330;69.282;2023-07-20T05:29:03;25.50;;;8.15;;
78346;SDS011;67803;41.330;69.282;2023-07-20T05:31:33;23.05;;;8.35;;
78346;SDS011;67803;41.330;69.282;2023-07-20T05:34:04;27.48;;;8.73;;
78346;SDS011;67803;41.330;69.282;2023-07-20T05:36:34;27.27;;;8.13;;
78346;SDS011;67803;41.330;69.282;2023-07-20T05:39:04;21.83;;;7.32;;
78346;SDS011;67803;41.330;69.282;2023-07-20T05:41:35;27.50;;;7.43;;
78346;SDS011;67803;41.330;69.282;2023-07-20T05:44:06;24.08;;;6.93;;
78346;SDS011;67803;41.330;69.282;2023-07-20T05:46:36;23.15;;;6.65;;
78346;SDS011;67803;41.330;69.282;2023-07-20T05:49:06;22.15;;;6.47;;
78346;SDS011;67803;41.330;69.282;2023-07-20T05:51:37;18.30;;;5.63;;
78346;SDS011;67803;41.330;69.282;2023-07-20T05:54:07;20.50;;;6.32;;
78346;SDS011;67803;41.330;69.282;2023-07-20T05:56:38;23.65;;;6.03;;
78346;SDS011;67803;41.330;69.282;2023-07-20T05:59:08;20.40;;;6.05;;
78346;SDS011;67803;41.330;69.282;2023-07-20T06:01:39;17.95;;;5.63;;
78346;SDS011;67803;41.330;69.282;2023-07-20T06:04:09;15.60;;;5.55;;
78346;SDS011;67803;41.330;69.282;2023-07-20T06:06:40;18.25;;;5.55;;
78346;SDS011;67803;41.330;69.282;2023-07-20T06:09:10;15.90;;;5.50;;
78346;SDS011;67803;41.330;69.282;2023-07-20T06:11:42;14.18;;;4.78;;
78346;SDS011;67803;41.330;69.282;2023-07-20T06:14:12;18.10;;;5.57;;
78346;SDS011;67803;41.330;69.282;2023-07-20T06:16:43;14.82;;;5.65;;
78346;SDS011;67803;41.330;69.282;2023-07-20T06:19:13;15.98;;;5.65;;
78346;SDS011;67803;41.330;69.282;2023-07-20T06:21:43;14.63;;;5.47;;
78346;SDS011;67803;41.330;69.282;2023-07-20T06:24:14;17.75;;;6.18;;
78346;SDS011;67803;41.330;69.282;2023-07-20T06:26:44;20.98;;;7.13;;
78346;SDS011;67803;41.330;69.282;2023-07-20T06:29:15;24.42;;;6.85;;
78346;SDS011;67803;41.330;69.282;2023-07-20T06:31:45;20.48;;;5.82;;
78346;SDS011;67803;41.330;69.282;2023-07-20T06:34:16;17.85;;;6.22;;
78346;SDS011;67803;41.330;69.282;2023-07-20T06:36:46;19.15;;;7.50;;
78346;SDS011;67803;41.330;69.282;2023-07-20T06:39:17;19.90;;;6.80;;
78346;SDS011;67803;41.330;69.282;2023-07-20T06:41:47;20.67;;;6.82;;
78346;SDS011;67803;41.330;69.282;2023-07-20T06:44:18;15.20;;;5.65;;
78346;SDS011;67803;41.330;69.282;2023-07-20T06:46:48;12.52;;;5.80;;
78346;SDS011;67803;41.330;69.282;2023-07-20T06:49:25;14.70;;;5.28;;
78346;SDS011;67803;41.330;69.282;2023-07-20T06:51:56;18.88;;;6.00;;
78346;SDS011;67803;41.330;69.282;2023-07-20T06:54:26;17.30;;;5.28;;
78346;SDS011;67803;41.330;69.282;2023-07-20T06:56:57;15.70;;;5.40;;
78346;SDS011;67803;41.330;69.282;2023-07-20T06:59:27;11.90;;;5.10;;
78346;SDS011;67803;41.330;69.282;2023-07-20T07:01:58;16.92;;;4.90;;
78346;SDS011;67803;41.330;69.282;2023-07-20T07:04:28;19.23;;;5.50;;
78346;SDS011;67803;41.330;69.282;2023-07-20T07:06:59;10.80;;;5.05;;
78346;SDS011;67803;41.330;69.282;2023-07-20T07:09:30;11.55;;;4.65;;
78346;SDS011;67803;41.330;69.282;2023-07-20T07:12:00;17.83;;;4.70;;
78346;SDS011;67803;41.330;69.282;2023-07-20T07:14:32;20.17;;;5.00;;
78346;SDS011;67803;41.330;69.282;2023-07-20T07:17:02;13.45;;;5.32;;
78346;SDS011;67803;41.330;69.282;2023-07-20T07:19:33;12.30;;;3.92;;
78346;SDS011;67803;41.330;69.282;2023-07-20T07:22:04;13.93;;;4.60;;
78346;SDS011;67803;41.330;69.282;2023-07-20T07:24:34;15.45;;;4.95;;
78346;SDS011;67803;41.330;69.282;2023-07-20T07:27:05;14.68;;;5.38;;
78346;SDS011;67803;41.330;69.282;2023-07-20T07:29:35;14.43;;;4.28;;
78346;SDS011;67803;41.330;69.282;2023-07-20T07:32:06;9.55;;;4.28;;
78346;SDS011;67803;41.330;69.282;2023-07-20T07:34:37;9.95;;;4.25;;
78346;SDS011;67803;41.330;69.282;2023-07-20T07:37:07;12.23;;;4.53;;
78346;SDS011;67803;41.330;69.282;2023-07-20T07:39:38;7.68;;;4.18;;
78346;SDS011;67803;41.330;69.282;2023-07-20T07:42:08;13.00;;;4.50;;
78346;SDS011;67803;41.330;69.282;2023-07-20T07:44:39;10.57;;;4.07;;
78346;SDS011;67803;41.330;69.282;2023-07-20T07:47:09;17.23;;;4.38;;
78346;SDS011;67803;41.330;69.282;2023-07-20T07:49:40;12.05;;;3.38;;
78346;SDS011;67803;41.330;69.282;2023-07-20T07:52:10;10.68;;;4.00;;
78346;SDS011;67803;41.330;69.282;2023-07-20T07:54:40;13.20;;;3.70;;
78346;SDS011;67803;41.330;69.282;2023-07-20T07:57:11;8.70;;;4.00;;
78346;SDS011;67803;41.330;69.282;2023-07-20T07:59:41;12.73;;;4.00;;
78346;SDS011;67803;41.330;69.282;2023-07-20T08:02:12;12.55;;;3.83;;
78346;SDS011;67803;41.330;69.282;2023-07-20T08:04:42;10.48;;;3.63;;
78346;SDS011;67803;41.330;69.282;2023-07-20T08:07:13;13.35;;;4.20;;
78346;SDS011;67803;41.330;69.282;2023-07-20T08:09:43;12.07;;;3.95;;
78346;SDS011;67803;41.330;69.282;2023-07-20T08:12:13;9.43;;;4.03;;
78346;SDS011;67803;41.330;69.282;2023-07-20T08:14:46;8.52;;;3.72;;
78346;SDS011;67803;41.330;69.282;2023-07-20T08:17:17;13.00;;;3.83;;
78346;SDS011;67803;41.330;69.282;2023-07-20T08:19:47;10.40;;;4.22;;
78346;SDS011;67803;41.330;69.282;2023-07-20T08:22:18;12.10;;;4.05;;
78346;SDS011;67803;41.330;69.282;2023-07-20T08:24:48;11.43;;;3.97;;
78346;SDS011;67803;41.330;69.282;2023-07-20T08:27:19;11.70;;;3.70;;
78346;SDS011;67803;41.330;69.282;2023-07-20T08:29:49;8.25;;;3.40;;
78346;SDS011;67803;41.330;69.282;2023-07-20T08:32:20;12.57;;;3.38;;
78346;SDS011;67803;41.330;69.282;2023-07-20T08:34:50;8.65;;;3.72;;
78346;SDS011;67803;41.330;69.282;2023-07-20T08:37:21;7.57;;;3.50;;
78346;SDS011;67803;41.330;69.282;2023-07-20T08:39:51;14.50;;;4.53;;
78346;SDS011;67803;41.330;69.282;2023-07-20T08:42:22;9.77;;;3.72;;
78346;SDS011;67803;41.330;69.282;2023-07-20T08:44:53;14.23;;;4.07;;
78346;SDS011;67803;41.330;69.282;2023-07-20T08:47:24;14.57;;;3.83;;
78346;SDS011;67803;41.330;69.282;2023-07-20T08:49:55;9.35;;;3.33;;
78346;SDS011;67803;41.330;69.282;2023-07-20T08:52:26;11.57;;;3.55;;
78346;SDS011;67803;41.330;69.282;2023-07-20T08:54:57;14.57;;;4.05;;
78346;SDS011;67803;41.330;69.282;2023-07-20T08:57:28;10.05;;;3.75;;
78346;SDS011;67803;41.330;69.282;2023-07-20T08:59:58;10.20;;;3.90;;
78346;SDS011;67803;41.330;69.282;2023-07-20T09:02:30;10.73;;;3.53;;
78346;SDS011;67803;41.330;69.282;2023-07-20T09:05:02;11.40;;;3.60;;
78346;SDS011;67803;41.330;69.282;2023-07-20T09:07:32;10.45;;;3.53;;
78346;SDS011;67803;41.330;69.282;2023-07-20T09:10:03;9.52;;;3.40;;
78346;SDS011;67803;41.330;69.282;2023-07-20T09:12:37;12.82;;;3.10;;
78346;SDS011;67803;41.330;69.282;2023-07-20T09:15:08;12.35;;;3.80;;
78346;SDS011;67803;41.330;69.282;2023-07-20T09:17:38;8.23;;;2.80;;
78346;SDS011;67803;41.330;69.282;2023-07-20T09:20:09;10.13;;;3.47;;
78346;SDS011;67803;41.330;69.282;2023-07-20T09:22:42;8.90;;;3.22;;
78346;SDS011;67803;41.330;69.282;2023-07-20T09:25:13;9.02;;;2.65;;
78346;SDS011;67803;41.330;69.282;2023-07-20T09:27:45;9.75;;;3.80;;
78346;SDS011;67803;41.330;69.282;2023-07-20T09:30:16;10.43;;;3.60;;
78346;SDS011;67803;41.330;69.282;2023-07-20T09:32:47;13.32;;;3.45;;
78346;SDS011;67803;41.330;69.282;2023-07-20T09:35:19;7.65;;;3.33;;
78346;SDS011;67803;41.330;69.282;2023-07-20T09:37:51;9.63;;;3.30;;
78346;SDS011;67803;41.330;69.282;2023-07-20T09:40:24;13.00;;;3.17;;
78346;SDS011;67803;41.330;69.282;2023-07-20T09:42:55;8.18;;;3.10;;
78346;SDS011;67803;41.330;69.282;2023-07-20T09:45:44;9.55;;;3.17;;
78346;SDS011;67803;41.330;69.282;2023-07-20T09:48:14;8.18;;;3.00;;
78346;SDS011;67803;41.330;69.282;2023-07-20T09:50:49;8.60;;;3.50;;
78346;SDS011;67803;41.330;69.282;2023-07-20T09:53:20;9.48;;;3.05;;
78346;SDS011;67803;41.330;69.282;2023-07-20T09:55:50;9.45;;;3.33;;
78346;SDS011;67803;41.330;69.282;2023-07-20T09:58:22;13.93;;;3.90;;
78346;SDS011;67803;41.330;69.282;2023-07-20T10:00:52;11.48;;;2.97;;
78346;SDS011;67803;41.330;69.282;2023-07-20T10:03:29;9.07;;;3.55;;
78346;SDS011;67803;41.330;69.282;2023-07-20T10:06:06;12.88;;;3.60;;
78346;SDS011;67803;41.330;69.282;2023-07-20T10:08:40;18.75;;;3.85;;
78346;SDS011;67803;41.330;69.282;2023-07-20T10:11:11;13.68;;;4.50;;
78346;SDS011;67803;41.330;69.282;2023-07-20T10:13:43;8.45;;;3.50;;
78346;SDS011;67803;41.330;69.282;2023-07-20T10:16:35;13.00;;;4.30;;
78346;SDS011;67803;41.330;69.282;2023-07-20T10:19:11;9.77;;;4.05;;
78346;SDS011;67803;41.330;69.282;2023-07-20T10:21:47;6.47;;;3.00;;
78346;SDS011;67803;41.330;69.282;2023-07-20T10:24:18;13.18;;;4.10;;
78346;SDS011;67803;41.330;69.282;2023-07-20T10:26:49;9.65;;;3.42;;
78346;SDS011;67803;41.330;69.282;2023-07-20T10:29:19;9.10;;;3.28;;
78346;SDS011;67803;41.330;69.282;2023-07-20T10:31:50;9.43;;;3.40;;
78346;SDS011;67803;41.330;69.282;2023-07-20T10:34:21;15.10;;;4.05;;
78346;SDS011;67803;41.330;69.282;2023-07-20T10:36:52;9.52;;;3.35;;
78346;SDS011;67803;41.330;69.282;2023-07-20T10:39:25;12.70;;;3.60;;
78346;SDS011;67803;41.330;69.282;2023-07-20T10:42:06;10.85;;;4.03;;
78346;SDS011;67803;41.330;69.282;2023-07-20T10:44:38;12.02;;;3.33;;
78346;SDS011;67803;41.330;69.282;2023-07-20T10:47:09;9.73;;;3.15;;
78346;SDS011;67803;41.330;69.282;2023-07-20T10:49:59;9.15;;;2.92;;
78346;SDS011;67803;41.330;69.282;2023-07-20T10:52:41;12.45;;;3.50;;
78346;SDS011;67803;41.330;69.282;2023-07-20T10:55:15;8.02;;;2.90;;
78346;SDS011;67803;41.330;69.282;2023-07-20T10:58:05;10.45;;;3.67;;
78346;SDS011;67803;41.330;69.282;2023-07-20T11:00:36;8.30;;;2.60;;
78346;SDS011;67803;41.330;69.282;2023-07-20T11:03:07;11.27;;;3.10;;
78346;SDS011;67803;41.330;69.282;2023-07-20T11:05:38;12.43;;;3.28;;
78346;SDS011;67803;41.330;69.282;2023-07-20T11:08:10;8.27;;;2.92;;
78346;SDS011;67803;41.330;69.282;2023-07-20T11:10:41;8.45;;;3.03;;
78346;SDS011;67803;41.330;69.282;2023-07-20T11:20:57;8.30;;;3.10;;
78346;SDS011;67803;41.330;69.282;2023-07-20T11:23:28;13.57;;;2.80;;
78346;SDS011;67803;41.330;69.282;2023-07-20T11:25:59;11.63;;;3.35;;
78346;SDS011;67803;41.330;69.282;2023-07-20T11:28:30;21.77;;;3.47;;
78346;SDS011;67803;41.330;69.282;2023-07-20T11:31:01;11.73;;;3.30;;
78346;SDS011;67803;41.330;69.282;2023-07-20T11:33:31;10.23;;;2.70;;
78346;SDS011;67803;41.330;69.282;2023-07-20T11:36:02;10.35;;;2.70;;
78346;SDS011;67803;41.330;69.282;2023-07-20T11:38:32;8.30;;;2.60;;
78346;SDS011;67803;41.330;69.282;2023-07-20T11:41:03;9.80;;;2.53;;
78346;SDS011;67803;41.330;69.282;2023-07-20T11:43:34;10.77;;;3.05;;
78346;SDS011;67803;41.330;69.282;2023-07-20T11:46:05;7.28;;;2.80;;
78346;SDS011;67803;41.330;69.282;2023-07-20T11:48:35;9.45;;;2.85;;
78346;SDS011;67803;41.330;69.282;2023-07-20T11:51:06;11.05;;;2.83;;
78346;SDS011;67803;41.330;69.282;2023-07-20T11:53:36;7.53;;;2.72;;
78346;SDS011;67803;41.330;69.282;2023-07-20T11:56:07;10.02;;;2.80;;
78346;SDS011;67803;41.330;69.282;2023-07-20T11:58:44;9.98;;;2.67;;
78346;SDS011;67803;41.330;69.282;2023-07-20T12:01:15;6.75;;;2.50;;
78346;SDS011;67803;41.330;69.282;2023-07-20T12:03:47;8.23;;;2.88;;
78346;SDS011;67803;41.330;69.282;2023-07-20T12:06:18;7.05;;;2.88;;
78346;SDS011;67803;41.330;69.282;2023-07-20T12:08:49;15.85;;;3.28;;
78346;SDS011;67803;41.330;69.282;2023-07-20T12:14:03;7.65;;;2.80;;
78346;SDS011;67803;41.330;69.282;2023-07-20T12:16:35;9.98;;;2.90;;
78346;SDS011;67803;41.330;69.282;2023-07-20T12:19:06;7.32;;;2.50;;
78346;SDS011;67803;41.330;69.282;2023-07-20T12:21:39;9.05;;;2.85;;
78346;SDS011;67803;41.330;69.282;2023-07-20T12:24:11;13.00;;;3.53;;
78346;SDS011;67803;41.330;69.282;2023-07-20T12:26:41;13.68;;;2.97;;
78346;SDS011;67803;41.330;69.282;2023-07-20T12:29:13;20.23;;;3.95;;
78346;SDS011;67803;41.330;69.282;2023-07-20T12:31:43;16.67;;;3.53;;
78346;SDS011;67803;41.330;69.282;2023-07-20T12:34:14;8.45;;;3.50;;
78346;SDS011;67803;41.330;69.282;2023-07-20T12:36:45;8.90;;;2.92;;
78346;SDS011;67803;41.330;69.282;2023-07-20T12:39:15;9.93;;;2.97;;
78346;SDS011;67803;41.330;69.282;2023-07-20T12:41:46;14.32;;;3.20;;
78346;SDS011;67803;41.330;69.282;2023-07-20T12:44:17;15.90;;;3.47;;
78346;SDS011;67803;41.330;69.282;2023-07-20T12:46:47;13.38;;;5.07;;
78346;SDS011;67803;41.330;69.282;2023-07-20T12:49:18;12.88;;;4.20;;
78346;SDS011;67803;41.330;69.282;2023-07-20T12:51:49;24.95;;;7.28;;
78346;SDS011;67803;41.330;69.282;2023-07-20T12:54:20;12.50;;;4.45;;
78346;SDS011;67803;41.330;69.282;2023-07-20T12:56:50;11.57;;;4.18;;
78346;SDS011;67803;41.330;69.282;2023-07-20T12:59:22;13.13;;;4.25;;
78346;SDS011;67803;41.330;69.282;2023-07-20T13:01:52;12.88;;;3.72;;
78346;SDS011;67803;41.330;69.282;2023-07-20T13:04:23;10.68;;;3.40;;
78346;SDS011;67803;41.330;69.282;2023-07-20T13:06:54;12.75;;;3.38;;
78346;SDS011;67803;41.330;69.282;2023-07-20T13:09:25;13.63;;;3.80;;
78346;SDS011;67803;41.330;69.282;2023-07-20T13:11:55;11.48;;;3.55;;
78346;SDS011;67803;41.330;69.282;2023-07-20T13:14:27;10.80;;;3.00;;
78346;SDS011;67803;41.330;69.282;2023-07-20T13:16:59;11.30;;;3.42;;
78346;SDS011;67803;41.330;69.282;2023-07-20T13:19:29;14.00;;;4.20;;
78346;SDS011;67803;41.330;69.282;2023-07-20T13:22:00;9.27;;;4.25;;
78346;SDS011;67803;41.330;69.282;2023-07-20T13:24:30;14.75;;;4.43;;
78346;SDS011;67803;41.330;69.282;2023-07-20T13:27:01;12.00;;;4.88;;
78346;SDS011;67803;41.330;69.282;2023-07-20T13:29:31;8.55;;;4.32;;
78346;SDS011;67803;41.330;69.282;2023-07-20T13:32:02;10.95;;;4.00;;
78346;SDS011;67803;41.330;69.282;2023-07-20T13:34:35;12.38;;;3.95;;
78346;SDS011;67803;41.330;69.282;2023-07-20T13:37:06;11.68;;;3.67;;
78346;SDS011;67803;41.330;69.282;2023-07-20T13:39:36;9.63;;;3.25;;
78346;SDS011;67803;41.330;69.282;2023-07-20T13:42:07;10.40;;;3.30;;
78346;SDS011;67803;41.330;69.282;2023-07-20T13:44:39;10.70;;;3.50;;
78346;SDS011;67803;41.330;69.282;2023-07-20T13:47:09;8.57;;;3.10;;
78346;SDS011;67803;41.330;69.282;2023-07-20T13:49:40;8.07;;;3.03;;
78346;SDS011;67803;41.330;69.282;2023-07-20T13:52:10;11.23;;;3.03;;
78346;SDS011;67803;41.330;69.282;2023-07-20T13:54:41;9.15;;;2.97;;
78346;SDS011;67803;41.330;69.282;2023-07-20T13:57:11;8.15;;;3.10;;
78346;SDS011;67803;41.330;69.282;2023-07-20T13:59:42;9.93;;;3.67;;
78346;SDS011;67803;41.330;69.282;2023-07-20T14:02:14;13.68;;;3.25;;
78346;SDS011;67803;41.330;69.282;2023-07-20T14:04:45;7.88;;;2.75;;
78346;SDS011;67803;41.330;69.282;2023-07-20T14:07:16;9.05;;;3.63;;
78346;SDS011;67803;41.330;69.282;2023-07-20T14:09:46;12.80;;;3.63;;
78346;SDS011;67803;41.330;69.282;2023-07-20T14:12:17;10.55;;;3.30;;
78346;SDS011;67803;41.330;69.282;2023-07-20T14:14:47;12.63;;;3.53;;
78346;SDS011;67803;41.330;69.282;2023-07-20T14:17:18;15.25;;;3.47;;
78346;SDS011;67803;41.330;69.282;2023-07-20T14:19:48;9.50;;;3.10;;
78346;SDS011;67803;41.330;69.282;2023-07-20T14:22:19;9.75;;;3.42;;
78346;SDS011;67803;41.330;69.282;2023-07-20T14:24:49;9.60;;;4.20;;
78346;SDS011;67803;41.330;69.282;2023-07-20T14:27:19;14.75;;;4.10;;
78346;SDS011;67803;41.330;69.282;2023-07-20T14:29:50;8.88;;;3.53;;
78346;SDS011;67803;41.330;69.282;2023-07-20T14:32:20;19.55;;;4.82;;
78346;SDS011;67803;41.330;69.282;2023-07-20T14:34:51;11.98;;;4.03;;
78346;SDS011;67803;41.330;69.282;2023-07-20T14:37:21;15.70;;;4.70;;
78346;SDS011;67803;41.330;69.282;2023-07-20T14:39:52;16.77;;;5.00;;
78346;SDS011;67803;41.330;69.282;2023-07-20T14:42:22;17.60;;;5.70;;
78346;SDS011;67803;41.330;69.282;2023-07-20T14:44:54;18.40;;;6.15;;
78346;SDS011;67803;41.330;69.282;2023-07-20T14:47:24;19.55;;;6.38;;
78346;SDS011;67803;41.330;69.282;2023-07-20T14:49:54;19.88;;;5.93;;
78346;SDS011;67803;41.330;69.282;2023-07-20T14:52:25;21.20;;;6.53;;
78346;SDS011;67803;41.330;69.282;2023-07-20T14:54:55;17.15;;;6.80;;
78346;SDS011;67803;41.330;69.282;2023-07-20T14:57:26;21.17;;;6.20;;
78346;SDS011;67803;41.330;69.282;2023-07-20T14:59:56;17.50;;;6.00;;
78346;SDS011;67803;41.330;69.282;2023-07-20T15:02:27;17.35;;;5.43;;
78346;SDS011;67803;41.330;69.282;2023-07-20T15:04:57;18.05;;;5.45;;